Time;durP1;ratioP1;P1;durP2;ratioP2;P2;SDS_P1;SDS_P2;PMS_P1;PMS_P2;Temp;Humidity;BMP_temperature;BMP_pressure;BME280_temperature;BME280_humidity;BME280_pressure;Samples;Min_cycle;Max_cycle;Signal;HPM_P1;HPM_P2
2022/10/21 00:00:16;;;;;;;6.80;5.80;;;8.40;99.90;;;;;;5120834;27;21143;-79
2022/10/21 00:02:43;;;;;;;8.60;6.37;;;8.30;99.90;;;;;;5110843;27;20537;-79
2022/10/21 00:05:10;;;;;;;8.43;6.20;;;8.30;99.90;;;;;;5115490;27;20458;-77
2022/10/21 00:07:38;;;;;;;7.00;5.57;;;8.30;99.90;;;;;;5116536;27;20464;-78
2022/10/21 00:10:07;;;;;;;9.00;6.70;;;8.30;99.90;;;;;;5115916;27;21016;-77
2022/10/21 00:12:34;;;;;;;10.03;7.10;;;8.40;99.90;;;;;;5123674;27;20511;-77
2022/10/21 00:15:01;;;;;;;5.57;5.07;;;8.30;99.90;;;;;;5119324;27;20472;-77
2022/10/21 00:17:29;;;;;;;7.23;6.33;;;8.30;99.90;;;;;;5118912;27;21156;-78
2022/10/21 00:19:56;;;;;;;8.10;6.00;;;8.30;99.90;;;;;;5122866;27;20464;-78
2022/10/21 00:22:23;;;;;;;7.73;6.20;;;8.30;99.90;;;;;;5123739;27;20457;-77
2022/10/21 00:24:52;;;;;;;8.60;5.87;;;8.30;99.90;;;;;;5123856;27;20539;-77
2022/10/21 00:27:19;;;;;;;8.67;6.00;;;8.30;99.90;;;;;;5123883;27;20489;-77
2022/10/21 00:29:46;;;;;;;8.87;6.17;;;8.30;99.90;;;;;;5112831;27;20473;-77
2022/10/21 00:32:13;;;;;;;8.90;6.77;;;8.20;99.90;;;;;;5121782;27;20521;-77
2022/10/21 00:34:42;;;;;;;9.47;6.70;;;8.10;99.90;;;;;;5122575;27;21177;-77
2022/10/21 00:37:09;;;;;;;9.50;6.07;;;8.10;99.90;;;;;;5115738;27;20460;-77
2022/10/21 00:39:36;;;;;;;8.17;6.80;;;8.10;99.90;;;;;;5117738;27;20540;-77
2022/10/21 00:42:06;;;;;;;10.80;5.57;;;8.00;99.90;;;;;;5117602;27;20454;-77
2022/10/21 00:44:34;;;;;;;6.37;5.57;;;8.00;99.90;;;;;;5108585;27;20515;-77
2022/10/21 00:47:07;;;;;;;14.13;6.20;;;8.00;99.90;;;;;;5115232;27;20458;-77
2022/10/21 00:49:38;;;;;;;7.70;5.67;;;8.00;99.90;;;;;;5122316;27;20530;-77
2022/10/21 00:52:09;;;;;;;10.07;7.03;;;7.90;99.90;;;;;;5117504;27;20474;-77
2022/10/21 00:54:37;;;;;;;9.80;7.97;;;8.00;99.90;;;;;;5120451;27;20487;-77
2022/10/21 00:57:05;;;;;;;8.50;7.43;;;8.00;99.90;;;;;;5109890;27;20457;-77
2022/10/21 00:59:35;;;;;;;8.00;7.07;;;7.90;99.90;;;;;;5124129;27;20463;-77
2022/10/21 01:02:02;;;;;;;14.07;7.93;;;7.90;99.90;;;;;;5119148;27;20454;-77
2022/10/21 01:04:30;;;;;;;9.53;7.00;;;7.80;99.90;;;;;;5119998;27;20461;-77
2022/10/21 01:06:57;;;;;;;8.70;7.03;;;7.80;99.90;;;;;;5117942;27;20445;-77
2022/10/21 01:09:24;;;;;;;9.20;7.10;;;7.70;99.90;;;;;;5121863;27;20468;-76
2022/10/21 01:11:52;;;;;;;8.80;7.87;;;7.70;99.90;;;;;;5113885;27;20849;-76
2022/10/21 01:14:46;;;;;;;9.90;8.03;;;7.70;99.90;;;;;;5115195;27;20557;-77
2022/10/21 01:17:24;;;;;;;9.33;8.37;;;7.70;99.90;;;;;;5115902;27;20497;-77
2022/10/21 01:20:21;;;;;;;9.53;8.13;;;7.70;99.90;;;;;;5115397;27;20453;-77
2022/10/21 01:23:28;;;;;;;12.83;9.93;;;7.60;99.90;;;;;;5111553;27;20522;-77
2022/10/21 01:26:19;;;;;;;8.43;7.47;;;7.60;99.90;;;;;;5114870;27;20459;-77
2022/10/21 01:29:03;;;;;;;8.80;7.23;;;7.50;99.90;;;;;;5113962;27;20977;-77
2022/10/21 01:31:36;;;;;;;11.13;7.97;;;7.50;99.90;;;;;;5112471;27;20530;-77
2022/10/21 01:34:09;;;;;;;6.70;6.10;;;7.50;99.90;;;;;;5122201;27;20476;-77
2022/10/21 01:36:42;;;;;;;9.80;7.90;;;7.30;99.90;;;;;;5122223;27;20851;-77
2022/10/21 01:39:18;;;;;;;12.63;8.33;;;7.30;99.90;;;;;;5118681;27;20491;-77
2022/10/21 01:41:54;;;;;;;10.67;7.70;;;7.30;99.90;;;;;;5111302;27;20456;-77
2022/10/21 01:44:26;;;;;;;9.17;7.70;;;7.30;99.90;;;;;;5114674;27;20986;-77
2022/10/21 01:46:58;;;;;;;12.47;7.90;;;7.30;99.90;;;;;;5120473;27;20451;-78
2022/10/21 01:49:30;;;;;;;10.83;9.30;;;7.30;99.90;;;;;;5109627;27;20516;-78
2022/10/21 01:51:59;;;;;;;8.40;7.60;;;7.30;99.90;;;;;;5118536;27;21004;-78
2022/10/21 01:54:31;;;;;;;8.13;7.23;;;7.20;99.90;;;;;;5113334;27;20507;-78
2022/10/21 01:56:59;;;;;;;9.77;7.93;;;7.20;99.90;;;;;;5114070;27;20461;-78
2022/10/21 01:59:30;;;;;;;10.67;8.70;;;7.20;99.90;;;;;;5115416;27;21005;-78
2022/10/21 02:02:00;;;;;;;9.37;7.43;;;7.20;99.90;;;;;;5116534;27;20460;-78
2022/10/21 02:04:30;;;;;;;7.43;6.73;;;7.10;99.90;;;;;;5114107;27;20462;-78
2022/10/21 02:06:57;;;;;;;7.33;6.70;;;7.20;99.90;;;;;;5117229;27;20469;-78
2022/10/21 02:09:25;;;;;;;14.00;6.93;;;7.10;99.90;;;;;;5120007;27;20521;-78
2022/10/21 02:11:56;;;;;;;10.67;7.10;;;7.00;99.90;;;;;;5115799;27;20525;-78
2022/10/21 02:14:27;;;;;;;6.93;6.27;;;7.00;99.90;;;;;;5112617;27;20822;-77
2022/10/21 02:16:55;;;;;;;8.93;7.13;;;7.00;99.90;;;;;;5113631;27;20463;-76
2022/10/21 02:19:23;;;;;;;7.87;7.07;;;6.90;99.90;;;;;;5112126;27;20467;-76
2022/10/21 02:21:53;;;;;;;10.00;7.63;;;6.80;99.90;;;;;;5121324;27;20977;-76
2022/10/21 02:24:25;;;;;;;9.10;6.77;;;6.90;99.90;;;;;;5123888;27;20466;-77
2022/10/21 02:26:52;;;;;;;7.93;6.77;;;6.80;99.90;;;;;;5110162;27;20500;-78
2022/10/21 02:29:23;;;;;;;9.30;7.83;;;6.80;99.90;;;;;;5117986;27;20541;-78
2022/10/21 02:32:08;;;;;;;7.43;6.70;;;6.70;99.90;;;;;;5113238;27;20462;-78
2022/10/21 02:34:49;;;;;;;11.73;7.07;;;6.80;99.90;;;;;;5123887;27;20483;-78
2022/10/21 02:37:27;;;;;;;9.33;6.90;;;6.70;99.90;;;;;;5106085;27;20542;-78
2022/10/21 02:40:01;;;;;;;12.80;7.60;;;6.80;99.90;;;;;;5119324;27;20517;-78
2022/10/21 02:42:40;;;;;;;10.00;7.40;;;6.80;99.90;;;;;;5119979;27;20515;-78
2022/10/21 02:45:09;;;;;;;8.73;6.77;;;6.70;99.90;;;;;;5109180;27;20455;-78
2022/10/21 02:47:38;;;;;;;8.50;7.00;;;6.70;99.90;;;;;;5114333;27;20831;-78
2022/10/21 02:50:07;;;;;;;10.63;9.00;;;6.70;99.90;;;;;;5117221;27;20541;-78
2022/10/21 02:52:34;;;;;;;11.90;7.47;;;6.80;99.90;;;;;;5115275;27;20530;-76
2022/10/21 02:55:01;;;;;;;11.27;7.90;;;6.70;99.90;;;;;;5112414;27;20506;-76
2022/10/21 02:57:28;;;;;;;7.13;6.17;;;6.70;99.90;;;;;;5113291;27;20996;-76
2022/10/21 02:59:55;;;;;;;13.63;7.57;;;6.70;99.90;;;;;;5119855;27;20460;-76
2022/10/21 03:02:22;;;;;;;7.47;6.77;;;6.70;99.90;;;;;;5111855;27;20508;-76
2022/10/21 03:04:49;;;;;;;11.40;8.60;;;6.80;99.90;;;;;;5115989;27;20465;-76
2022/10/21 03:07:17;;;;;;;15.73;7.50;;;6.70;99.90;;;;;;5114614;27;20954;-78
2022/10/21 03:09:44;;;;;;;9.90;7.57;;;6.70;99.90;;;;;;5111007;27;20461;-78
2022/10/21 03:12:11;;;;;;;11.30;7.60;;;6.80;99.90;;;;;;5113901;27;20454;-77
2022/10/21 03:14:38;;;;;;;7.50;6.40;;;6.90;99.90;;;;;;5116931;27;20537;-78
2022/10/21 03:17:05;;;;;;;8.10;7.30;;;7.00;99.90;;;;;;5120401;27;20469;-77
2022/10/21 03:19:32;;;;;;;10.43;8.80;;;7.10;99.90;;;;;;5118649;27;20794;-78
2022/10/21 03:21:59;;;;;;;7.43;6.70;;;7.10;99.90;;;;;;5121126;27;20469;-78
2022/10/21 03:24:28;;;;;;;10.23;8.43;;;7.20;99.90;;;;;;5116211;27;21033;-78
2022/10/21 03:26:55;;;;;;;13.20;9.23;;;7.20;99.90;;;;;;5110963;27;21125;-78
2022/10/21 03:29:22;;;;;;;9.73;8.00;;;7.20;99.90;;;;;;5113080;27;20987;-78
2022/10/21 03:31:48;;;;;;;9.27;8.37;;;7.20;99.90;;;;;;5103456;27;20932;-78
2022/10/21 03:34:16;;;;;;;11.97;9.50;;;7.30;99.90;;;;;;5114948;27;20492;-78
2022/10/21 03:36:42;;;;;;;9.80;8.67;;;7.30;99.90;;;;;;5110073;27;20525;-78
2022/10/21 03:39:11;;;;;;;15.63;9.43;;;7.40;99.90;;;;;;5122406;27;20472;-78
2022/10/21 03:41:39;;;;;;;14.80;10.47;;;7.50;99.90;;;;;;5111338;27;20525;-78
2022/10/21 03:44:06;;;;;;;13.73;11.00;;;7.60;99.90;;;;;;5119990;27;20690;-78
2022/10/21 03:46:33;;;;;;;12.60;10.40;;;7.60;99.90;;;;;;5112981;27;20461;-78
2022/10/21 03:49:00;;;;;;;11.83;10.63;;;7.60;99.90;;;;;;5112761;27;20893;-78
2022/10/21 03:51:27;;;;;;;13.60;10.30;;;7.70;99.90;;;;;;5123890;27;20463;-78
2022/10/21 03:53:54;;;;;;;13.30;10.17;;;7.70;99.90;;;;;;5123271;27;20548;-77
2022/10/21 03:56:21;;;;;;;13.80;10.00;;;7.70;99.90;;;;;;5127874;27;20452;-78
2022/10/21 03:58:49;;;;;;;18.93;9.87;;;7.60;99.90;;;;;;5118439;27;20511;-78
2022/10/21 04:01:16;;;;;;;14.60;9.67;;;7.60;99.90;;;;;;5118968;27;20460;-78
2022/10/21 04:03:43;;;;;;;15.60;10.37;;;7.60;99.90;;;;;;5116176;27;20527;-78
2022/10/21 04:06:10;;;;;;;15.83;11.00;;;7.60;99.90;;;;;;5121113;27;20460;-77
2022/10/21 04:08:37;;;;;;;13.13;10.50;;;7.60;99.90;;;;;;5124534;27;20467;-77
2022/10/21 04:11:04;;;;;;;11.80;10.30;;;7.70;99.90;;;;;;5115297;27;20561;-78
2022/10/21 04:13:31;;;;;;;14.60;11.80;;;7.70;99.90;;;;;;5112064;27;20666;-78
2022/10/21 04:16:01;;;;;;;13.17;10.60;;;7.70;99.90;;;;;;5116892;27;20925;-77
2022/10/21 04:18:28;;;;;;;12.93;10.70;;;7.80;99.90;;;;;;5126156;27;20948;-78
2022/10/21 04:20:55;;;;;;;14.93;11.33;;;7.90;99.90;;;;;;5112060;27;20460;-78
2022/10/21 04:23:22;;;;;;;19.27;11.13;;;7.80;99.90;;;;;;5129063;27;20563;-78
2022/10/21 04:25:49;;;;;;;17.83;10.90;;;7.70;99.90;;;;;;5118220;27;20467;-78
2022/10/21 04:28:16;;;;;;;12.00;10.70;;;7.80;99.90;;;;;;5122679;27;20484;-77
2022/10/21 04:30:43;;;;;;;14.17;9.87;;;7.80;99.90;;;;;;5111657;27;20526;-77
2022/10/21 04:33:11;;;;;;;12.50;10.13;;;7.70;99.90;;;;;;5119237;27;20541;-78
2022/10/21 04:35:40;;;;;;;14.33;10.47;;;7.70;99.90;;;;;;5118139;27;20464;-78
2022/10/21 04:38:07;;;;;;;12.43;9.90;;;7.70;99.90;;;;;;5111645;27;20456;-78
2022/10/21 04:40:34;;;;;;;14.40;10.47;;;7.70;99.90;;;;;;5122609;27;20447;-78
2022/10/21 04:43:01;;;;;;;13.33;10.17;;;7.70;99.90;;;;;;5115359;27;20453;-78
2022/10/21 04:45:28;;;;;;;16.73;10.20;;;7.70;99.90;;;;;;5112565;27;20849;-78
2022/10/21 04:47:55;;;;;;;14.73;9.47;;;7.70;99.90;;;;;;5116930;27;20447;-78
2022/10/21 04:50:23;;;;;;;10.87;9.63;;;7.70;99.90;;;;;;5123763;27;20457;-78
2022/10/21 04:52:50;;;;;;;12.63;10.63;;;7.70;99.90;;;;;;5120168;27;20504;-78
2022/10/21 04:55:17;;;;;;;15.63;12.07;;;7.70;99.90;;;;;;5116015;27;20484;-78
2022/10/21 04:57:44;;;;;;;11.57;10.30;;;7.60;99.90;;;;;;5110610;27;20521;-78
2022/10/21 05:00:12;;;;;;;12.63;10.53;;;7.50;99.90;;;;;;5123287;27;20455;-78
2022/10/21 05:02:39;;;;;;;12.57;10.37;;;7.50;99.90;;;;;;5119357;27;20510;-78
2022/10/21 05:05:07;;;;;;;12.80;9.60;;;7.50;99.90;;;;;;5121545;27;20452;-78
2022/10/21 05:07:35;;;;;;;15.60;10.13;;;7.60;99.90;;;;;;5121513;27;20465;-78
2022/10/21 05:10:02;;;;;;;10.77;9.00;;;7.50;99.90;;;;;;5109190;27;20518;-78
2022/10/21 05:12:29;;;;;;;10.93;9.00;;;7.60;99.90;;;;;;5115812;27;20463;-78
2022/10/21 05:14:56;;;;;;;11.87;9.87;;;7.50;99.90;;;;;;5116493;27;20623;-78
2022/10/21 05:17:23;;;;;;;12.83;10.60;;;7.50;99.90;;;;;;5114498;27;20456;-78
2022/10/21 05:19:50;;;;;;;13.70;11.17;;;7.50;99.90;;;;;;5111620;27;20449;-78
2022/10/21 05:22:17;;;;;;;15.40;10.27;;;7.50;99.90;;;;;;5114070;27;20932;-78
2022/10/21 05:24:45;;;;;;;11.17;9.00;;;7.40;99.90;;;;;;5120932;27;20521;-78
2022/10/21 05:27:12;;;;;;;11.70;9.87;;;7.50;99.90;;;;;;5111811;27;20561;-77
2022/10/21 05:29:39;;;;;;;14.13;11.00;;;7.50;99.90;;;;;;5115971;27;20445;-77
2022/10/21 05:32:06;;;;;;;12.23;9.73;;;7.40;99.90;;;;;;5113327;27;20464;-80
2022/10/21 05:34:33;;;;;;;11.63;9.20;;;7.40;99.90;;;;;;5126425;27;20541;-79
2022/10/21 05:37:00;;;;;;;13.97;11.30;;;7.40;99.90;;;;;;5116829;27;20444;-79
2022/10/21 05:39:27;;;;;;;12.63;9.93;;;7.50;99.90;;;;;;5105989;27;20921;-80
2022/10/21 05:41:55;;;;;;;12.83;10.33;;;7.50;99.90;;;;;;5111169;27;20529;-79
2022/10/21 05:44:22;;;;;;;11.90;10.00;;;7.50;99.90;;;;;;5106212;27;20530;-79
2022/10/21 05:46:49;;;;;;;12.13;10.40;;;7.40;99.90;;;;;;5110112;27;21178;-79
2022/10/21 05:49:16;;;;;;;13.87;11.37;;;7.40;99.90;;;;;;5112021;27;20523;-80
2022/10/21 05:51:43;;;;;;;23.73;10.77;;;7.30;99.90;;;;;;5112304;27;21216;-80
2022/10/21 05:54:10;;;;;;;13.63;10.10;;;7.30;99.90;;;;;;5118123;27;20488;-80
2022/10/21 05:56:37;;;;;;;12.17;10.60;;;7.30;99.90;;;;;;5112983;27;20469;-79
2022/10/21 05:59:06;;;;;;;14.63;9.90;;;7.30;99.90;;;;;;5108611;27;21013;-79
2022/10/21 06:01:33;;;;;;;15.53;10.87;;;7.30;99.90;;;;;;5111770;27;20473;-79
2022/10/21 06:04:00;;;;;;;17.60;10.60;;;7.40;99.90;;;;;;5108989;27;20527;-80
2022/10/21 06:06:27;;;;;;;18.03;12.67;;;7.30;99.90;;;;;;5113622;27;21020;-79
2022/10/21 06:08:53;;;;;;;14.37;9.90;;;7.40;99.90;;;;;;5104905;27;20459;-79
2022/10/21 06:11:20;;;;;;;14.50;11.37;;;7.50;99.90;;;;;;5114657;27;20481;-79
2022/10/21 06:13:48;;;;;;;14.20;10.60;;;7.40;99.90;;;;;;5113494;27;20567;-79
2022/10/21 06:16:17;;;;;;;11.50;10.30;;;7.40;99.90;;;;;;5112418;27;20514;-79
2022/10/21 06:18:44;;;;;;;12.37;10.37;;;7.40;99.90;;;;;;5118368;27;20812;-79
2022/10/21 06:21:11;;;;;;;15.10;9.57;;;7.50;99.90;;;;;;5112533;27;21047;-79
2022/10/21 06:23:38;;;;;;;14.97;11.30;;;7.70;99.90;;;;;;5111517;27;20464;-78
2022/10/21 06:26:07;;;;;;;16.20;10.50;;;7.80;99.90;;;;;;5120700;27;20530;-77
2022/10/21 06:28:36;;;;;;;11.27;10.00;;;7.80;99.90;;;;;;5120834;27;20492;-77
2022/10/21 06:31:03;;;;;;;11.63;9.50;;;7.80;99.90;;;;;;5120837;27;20445;-78
2022/10/21 06:33:32;;;;;;;15.60;9.50;;;7.90;99.90;;;;;;5117498;27;20518;-77
2022/10/21 06:35:59;;;;;;;13.60;9.83;;;8.00;99.90;;;;;;5117902;27;20458;-77
2022/10/21 06:38:26;;;;;;;14.90;12.40;;;8.00;99.90;;;;;;5122236;27;20803;-77
2022/10/21 06:41:00;;;;;;;13.13;10.00;;;8.00;99.90;;;;;;5106959;27;20496;-78
2022/10/21 06:43:27;;;;;;;12.67;11.30;;;8.00;99.90;;;;;;5108602;27;20933;-77
2022/10/21 06:45:59;;;;;;;14.20;11.33;;;8.20;99.90;;;;;;5107301;27;20595;-78
2022/10/21 06:48:26;;;;;;;13.13;10.20;;;8.30;99.90;;;;;;5108899;27;20546;-78
2022/10/21 06:50:58;;;;;;;11.83;10.60;;;8.20;99.90;;;;;;5112626;27;20964;-78
2022/10/21 06:53:25;;;;;;;12.00;9.63;;;8.20;99.90;;;;;;5105781;27;20514;-78
2022/10/21 06:56:00;;;;;;;10.20;9.10;;;8.20;99.90;;;;;;5112350;27;20481;-77
2022/10/21 06:58:27;;;;;;;12.63;9.70;;;8.50;99.90;;;;;;5114600;27;20497;-77
2022/10/21 07:00:54;;;;;;;13.77;9.30;;;8.50;99.90;;;;;;5113795;27;20492;-78
2022/10/21 07:03:21;;;;;;;8.63;7.77;;;8.50;99.90;;;;;;5114246;27;20445;-78
2022/10/21 07:05:48;;;;;;;9.63;8.37;;;8.40;99.90;;;;;;5118634;27;20461;-78
2022/10/21 07:08:17;;;;;;;11.23;9.70;;;8.50;99.90;;;;;;5112996;27;20473;-77
2022/10/21 07:10:44;;;;;;;9.60;8.57;;;8.60;99.90;;;;;;5107064;27;20462;-78
2022/10/21 07:13:12;;;;;;;12.53;8.37;;;8.60;99.90;;;;;;5104469;27;20463;-78
2022/10/21 07:15:39;;;;;;;12.47;8.43;;;8.70;99.90;;;;;;5106495;27;20482;-78
2022/10/21 07:18:06;;;;;;;14.60;8.40;;;8.80;99.90;;;;;;5102957;27;20457;-79
2022/10/21 07:20:34;;;;;;;9.40;8.20;;;8.90;99.90;;;;;;5106269;27;20493;-78
2022/10/21 07:23:01;;;;;;;10.13;8.40;;;9.00;99.90;;;;;;5115578;27;20461;-78
2022/10/21 07:25:29;;;;;;;10.67;8.30;;;9.10;99.90;;;;;;5113282;27;20508;-78
2022/10/21 07:27:57;;;;;;;9.30;8.17;;;9.00;99.90;;;;;;5114874;27;20492;-78
2022/10/21 07:30:24;;;;;;;9.73;7.43;;;9.10;99.90;;;;;;5115271;27;20545;-78
2022/10/21 07:32:51;;;;;;;9.20;8.17;;;9.20;99.90;;;;;;5114364;27;20513;-78
2022/10/21 07:35:18;;;;;;;9.83;7.20;;;9.10;99.90;;;;;;5107814;27;20481;-79
2022/10/21 07:37:45;;;;;;;8.47;7.57;;;9.10;99.90;;;;;;5111303;28;20993;-78
2022/10/21 07:40:12;;;;;;;9.50;8.23;;;9.20;99.90;;;;;;5108984;28;20457;-78
2022/10/21 07:42:40;;;;;;;9.07;8.17;;;9.30;99.90;;;;;;5106045;28;20530;-78
2022/10/21 07:45:08;;;;;;;8.93;8.03;;;9.30;99.90;;;;;;5108751;28;20902;-78
2022/10/21 07:47:34;;;;;;;9.43;7.50;;;9.40;99.90;;;;;;5118756;28;20503;-78
2022/10/21 07:50:01;;;;;;;10.83;7.70;;;9.30;99.90;;;;;;5106152;28;20498;-78
2022/10/21 07:52:28;;;;;;;9.17;7.63;;;9.30;99.90;;;;;;5104267;28;20531;-77
2022/10/21 07:54:55;;;;;;;11.70;9.70;;;9.30;99.90;;;;;;5101367;27;20481;-78
2022/10/21 07:57:22;;;;;;;8.70;7.80;;;9.30;99.90;;;;;;5104970;28;20450;-78
2022/10/21 07:59:51;;;;;;;8.47;7.60;;;9.30;99.90;;;;;;5107585;28;20503;-78
2022/10/21 08:02:18;;;;;;;10.77;6.60;;;9.30;99.90;;;;;;5114697;27;20538;-78
2022/10/21 08:04:45;;;;;;;21.00;7.57;;;9.40;99.90;;;;;;5112057;28;20481;-78
2022/10/21 08:07:12;;;;;;;10.47;7.40;;;9.40;99.90;;;;;;5105761;28;20510;-78
2022/10/21 08:09:39;;;;;;;7.53;6.83;;;9.40;99.90;;;;;;5114207;28;20457;-78
2022/10/21 08:12:06;;;;;;;10.57;7.83;;;9.50;99.90;;;;;;5115686;28;20905;-78
2022/10/21 08:14:33;;;;;;;7.70;6.50;;;9.60;99.90;;;;;;5112466;28;20493;-78
2022/10/21 08:17:01;;;;;;;11.27;7.87;;;9.50;99.90;;;;;;5115984;27;20471;-78
2022/10/21 08:19:29;;;;;;;7.70;6.90;;;9.70;99.90;;;;;;5117866;28;20494;-78
2022/10/21 08:21:57;;;;;;;9.53;6.30;;;9.70;99.90;;;;;;5105464;28;20454;-78
2022/10/21 08:24:24;;;;;;;9.03;5.63;;;9.90;99.90;;;;;;5119514;28;20576;-78
2022/10/21 08:26:51;;;;;;;6.30;5.70;;;10.10;99.90;;;;;;5104496;28;20805;-78
2022/10/21 08:29:18;;;;;;;9.43;6.93;;;10.00;99.90;;;;;;5105731;28;20457;-78
2022/10/21 08:31:46;;;;;;;8.50;7.00;;;10.20;99.90;;;;;;5112147;27;20469;-78
2022/10/21 08:34:14;;;;;;;10.07;7.27;;;10.20;99.90;;;;;;5115129;27;20532;-78
2022/10/21 08:36:41;;;;;;;6.30;5.20;;;10.20;99.90;;;;;;5124456;27;20496;-78
2022/10/21 08:39:08;;;;;;;6.83;6.10;;;10.20;99.90;;;;;;5114576;27;20466;-79
2022/10/21 08:42:07;;;;;;;9.20;7.40;;;10.10;99.90;;;;;;5109169;27;20446;-77
2022/10/21 08:44:41;;;;;;;6.70;5.97;;;10.20;99.90;;;;;;5071207;27;20461;-78
2022/10/21 08:47:16;;;;;;;8.10;6.73;;;10.10;99.90;;;;;;5112001;27;21167;-77
2022/10/21 08:49:53;;;;;;;8.43;7.40;;;10.10;99.90;;;;;;5107708;27;20935;-78
2022/10/21 08:52:26;;;;;;;8.10;5.37;;;10.20;99.90;;;;;;5115071;27;20562;-77
2022/10/21 08:54:56;;;;;;;7.93;7.10;;;10.20;99.90;;;;;;5116802;27;20511;-78
2022/10/21 08:57:23;;;;;;;13.83;6.10;;;10.50;99.90;;;;;;5121718;27;20453;-78
2022/10/21 08:59:51;;;;;;;7.23;6.17;;;10.40;99.90;;;;;;5122902;27;20489;-78
2022/10/21 09:02:35;;;;;;;7.93;7.13;;;10.40;99.90;;;;;;5126012;27;20465;-78
2022/10/21 09:05:34;;;;;;;8.90;5.80;;;10.50;99.90;;;;;;5109713;27;20473;-78
2022/10/21 09:08:12;;;;;;;7.30;6.60;;;10.70;99.90;;;;;;5092891;27;20462;-78
2022/10/21 09:10:51;;;;;;;10.80;7.60;;;10.60;99.90;;;;;;5112513;27;20905;-77
2022/10/21 09:13:30;;;;;;;7.40;6.70;;;10.80;99.90;;;;;;5112623;27;20855;-77
2022/10/21 09:16:06;;;;;;;9.17;6.50;;;10.90;99.90;;;;;;5107578;27;20531;-79
2022/10/21 09:18:47;;;;;;;6.70;6.00;;;10.80;99.90;;;;;;5114883;27;20502;-77
2022/10/21 09:21:23;;;;;;;10.23;7.30;;;10.80;99.90;;;;;;5106060;27;20456;-78
2022/10/21 09:24:01;;;;;;;9.07;7.33;;;10.90;99.90;;;;;;5115009;27;20557;-77
2022/10/21 09:26:36;;;;;;;7.60;6.80;;;10.80;99.90;;;;;;5113512;27;20458;-78
2022/10/21 09:29:23;;;;;;;8.03;7.23;;;11.00;99.90;;;;;;5105547;28;20449;-78
2022/10/21 09:31:50;;;;;;;10.63;7.87;;;11.00;99.90;;;;;;5114669;27;20530;-78
2022/10/21 09:34:23;;;;;;;9.37;7.70;;;11.10;99.90;;;;;;5119108;27;20512;-78
2022/10/21 09:36:53;;;;;;;8.60;7.30;;;11.20;99.90;;;;;;5109481;27;20442;-78
2022/10/21 09:39:29;;;;;;;9.70;7.17;;;11.30;99.90;;;;;;5110290;27;20461;-78
2022/10/21 09:41:58;;;;;;;7.80;7.10;;;11.30;99.90;;;;;;5118495;27;20522;-78
2022/10/21 09:44:25;;;;;;;7.40;6.60;;;11.50;99.90;;;;;;5114121;27;20470;-76
2022/10/21 09:46:54;;;;;;;6.40;5.80;;;11.50;99.90;;;;;;5115559;27;20461;-77
2022/10/21 09:49:28;;;;;;;6.63;6.00;;;11.50;99.90;;;;;;5106156;27;20585;-76
2022/10/21 09:51:59;;;;;;;7.80;6.80;;;11.80;99.90;;;;;;5105150;28;20449;-76
2022/10/21 09:54:33;;;;;;;8.70;6.20;;;11.80;99.90;;;;;;5113449;27;20511;-77
2022/10/21 09:57:04;;;;;;;7.43;6.73;;;11.70;99.90;;;;;;5106764;27;20520;-77
2022/10/21 09:59:32;;;;;;;8.43;6.70;;;12.00;99.90;;;;;;5108599;27;20473;-78
2022/10/21 10:02:06;;;;;;;8.73;7.30;;;12.00;99.90;;;;;;5111258;27;20789;-77
2022/10/21 10:04:35;;;;;;;8.73;6.80;;;11.90;99.90;;;;;;5112677;27;20452;-77
2022/10/21 10:07:20;;;;;;;8.23;6.87;;;12.00;99.90;;;;;;5120267;27;20458;-77
2022/10/21 10:09:48;;;;;;;7.40;6.77;;;11.90;99.90;;;;;;5119357;27;20526;-77
2022/10/21 10:12:20;;;;;;;9.07;7.50;;;11.70;99.90;;;;;;5108737;27;20995;-77
2022/10/21 10:14:47;;;;;;;8.23;6.90;;;11.70;99.90;;;;;;5107849;27;20912;-77
2022/10/21 10:17:27;;;;;;;7.63;6.93;;;11.60;99.90;;;;;;5105830;27;20540;-77
2022/10/21 10:20:14;;;;;;;7.40;6.60;;;11.70;99.90;;;;;;5106283;27;20467;-77
2022/10/21 10:22:43;;;;;;;11.43;7.60;;;11.60;99.90;;;;;;5106705;27;20510;-77
2022/10/21 10:25:20;;;;;;;8.50;7.17;;;11.50;99.90;;;;;;5117036;27;20525;-77
2022/10/21 10:27:48;;;;;;;8.93;6.73;;;11.60;99.90;;;;;;5112966;27;20491;-77
2022/10/21 10:30:16;;;;;;;7.90;6.60;;;11.60;99.90;;;;;;5108327;27;20515;-77
2022/10/21 10:32:44;;;;;;;7.50;6.83;;;11.60;99.90;;;;;;5113622;27;20465;-77
2022/10/21 10:35:21;;;;;;;9.00;7.90;;;11.50;99.90;;;;;;5113742;27;20528;-77
2022/10/21 10:37:50;;;;;;;9.00;7.70;;;11.50;99.90;;;;;;5108718;27;20487;-77
2022/10/21 10:40:22;;;;;;;8.87;6.00;;;11.50;99.90;;;;;;5107312;27;20462;-77
2022/10/21 10:42:52;;;;;;;8.30;7.00;;;11.60;99.90;;;;;;5107907;27;20945;-78
2022/10/21 10:45:22;;;;;;;12.40;7.60;;;11.60;99.90;;;;;;5100900;27;21022;-78
2022/10/21 10:47:54;;;;;;;9.50;6.97;;;11.70;99.90;;;;;;5103901;27;20469;-77
2022/10/21 10:50:40;;;;;;;10.30;7.73;;;11.70;99.90;;;;;;5111814;27;20478;-77
2022/10/21 10:53:27;;;;;;;8.77;7.67;;;11.60;99.90;;;;;;5109619;27;20519;-78
2022/10/21 10:56:01;;;;;;;10.57;8.77;;;11.60;99.90;;;;;;5114822;27;20484;-77
2022/10/21 10:58:32;;;;;;;9.53;7.00;;;11.60;99.90;;;;;;5112473;27;20467;-78
2022/10/21 11:01:02;;;;;;;16.10;9.27;;;11.70;99.90;;;;;;5106579;27;21007;-78
2022/10/21 11:03:38;;;;;;;13.77;8.80;;;11.80;99.90;;;;;;5113820;27;20518;-77
2022/10/21 11:06:13;;;;;;;7.83;7.03;;;11.70;99.90;;;;;;5119874;27;20450;-78
2022/10/21 11:08:47;;;;;;;11.57;7.43;;;11.70;99.90;;;;;;5109280;27;20504;-78
2022/10/21 11:11:21;;;;;;;9.73;7.47;;;11.70;99.90;;;;;;5097620;27;20459;-77
2022/10/21 11:13:48;;;;;;;11.43;7.97;;;12.00;99.90;;;;;;5106851;27;20468;-77
2022/10/21 11:16:36;;;;;;;11.17;8.03;;;12.20;99.90;;;;;;5112498;27;20485;-77
2022/10/21 11:19:11;;;;;;;9.77;7.50;;;12.30;99.90;;;;;;5113311;27;20983;-77
2022/10/21 11:21:47;;;;;;;8.07;7.27;;;12.30;99.90;;;;;;5112420;27;21107;-77
2022/10/21 11:24:45;;;;;;;10.13;6.97;;;12.30;99.90;;;;;;5111445;27;20478;-77
2022/10/21 11:27:19;;;;;;;9.37;7.80;;;12.30;99.90;;;;;;5104029;28;20486;-77
2022/10/21 11:29:55;;;;;;;8.90;8.00;;;12.30;99.90;;;;;;5108354;28;20515;-77
2022/10/21 11:32:36;;;;;;;9.83;7.30;;;12.30;99.90;;;;;;5111003;27;20846;-77
2022/10/21 11:35:17;;;;;;;8.37;7.57;;;12.10;99.90;;;;;;5106507;28;20486;-77
2022/10/21 11:37:58;;;;;;;10.97;9.60;;;12.10;99.90;;;;;;5110533;28;20511;-77
2022/10/21 11:40:37;;;;;;;11.37;8.30;;;12.20;99.90;;;;;;5105406;28;20487;-77
2022/10/21 11:43:19;;;;;;;10.30;8.30;;;12.30;99.90;;;;;;5103229;28;20484;-78
2022/10/21 11:45:55;;;;;;;9.87;8.87;;;12.50;99.90;;;;;;5109877;28;20450;-77
2022/10/21 11:48:43;;;;;;;11.93;8.90;;;12.50;99.90;;;;;;5111071;28;20758;-77
2022/10/21 11:51:23;;;;;;;9.10;8.20;;;12.60;99.90;;;;;;5106890;28;20504;-78
2022/10/21 11:54:15;;;;;;;8.60;7.67;;;12.70;99.90;;;;;;5113467;28;20511;-77
2022/10/21 11:56:50;;;;;;;9.00;7.40;;;12.80;99.90;;;;;;5109232;28;20533;-78
2022/10/21 11:59:30;;;;;;;9.70;7.00;;;12.60;99.90;;;;;;5115321;28;20444;-78
2022/10/21 12:02:09;;;;;;;9.43;8.23;;;12.40;99.90;;;;;;5106436;28;20464;-77
2022/10/21 12:04:46;;;;;;;8.30;7.47;;;12.40;99.90;;;;;;5104646;28;20516;-77
2022/10/21 12:07:23;;;;;;;12.13;7.30;;;12.60;99.90;;;;;;5111325;27;20899;-77
2022/10/21 12:09:56;;;;;;;9.67;8.47;;;12.60;99.90;;;;;;5114507;27;20475;-77
2022/10/21 12:12:31;;;;;;;8.37;7.20;;;12.70;99.90;;;;;;5114565;27;20461;-77
2022/10/21 12:15:01;;;;;;;9.07;8.17;;;12.60;99.90;;;;;;5112320;27;20442;-77
2022/10/21 12:17:32;;;;;;;14.57;8.67;;;12.50;99.90;;;;;;5118660;27;20688;-78
2022/10/21 12:20:02;;;;;;;10.30;7.00;;;12.40;99.90;;;;;;5117036;27;20520;-77
2022/10/21 12:22:31;;;;;;;7.40;6.70;;;12.50;99.90;;;;;;5122023;27;20462;-77
2022/10/21 12:25:05;;;;;;;12.47;7.17;;;12.40;99.90;;;;;;5120453;27;20469;-78
2022/10/21 12:27:41;;;;;;;8.87;7.90;;;12.60;99.90;;;;;;5107410;28;20466;-77
2022/10/21 12:30:16;;;;;;;8.80;7.90;;;12.50;99.90;;;;;;5108825;27;20467;-77
2022/10/21 12:32:50;;;;;;;10.17;8.40;;;12.60;99.90;;;;;;5109189;27;20504;-78
2022/10/21 12:35:25;;;;;;;9.40;7.80;;;12.50;99.90;;;;;;5107007;27;20459;-77
2022/10/21 12:38:20;;;;;;;14.20;7.80;;;12.50;99.90;;;;;;5110389;27;20436;-78
2022/10/21 12:40:48;;;;;;;9.90;7.90;;;12.40;99.90;;;;;;5115921;27;20460;-80
2022/10/21 12:43:21;;;;;;;9.53;8.07;;;12.20;99.90;;;;;;5110644;27;20463;-79
2022/10/21 12:46:04;;;;;;;9.60;8.60;;;12.30;99.90;;;;;;5109635;27;20546;-79
2022/10/21 12:48:34;;;;;;;7.57;6.60;;;12.20;99.90;;;;;;5119536;27;20532;-78
2022/10/21 12:51:04;;;;;;;13.90;9.83;;;12.10;99.90;;;;;;5118851;27;20479;-79
2022/10/21 12:53:38;;;;;;;16.43;9.10;;;12.30;99.90;;;;;;5112620;27;20443;-78
2022/10/21 12:56:06;;;;;;;10.03;9.00;;;12.20;99.90;;;;;;5120329;27;20874;-79
2022/10/21 12:58:44;;;;;;;9.57;7.80;;;12.30;99.90;;;;;;5113418;27;20930;-79
2022/10/21 13:01:41;;;;;;;11.30;8.40;;;12.30;99.90;;;;;;5121644;27;20510;-79
2022/10/21 13:04:41;;;;;;;9.27;7.97;;;12.30;99.90;;;;;;5106342;27;20470;-79